createdAt,value
2018-12-16T00:00:52.783Z,-0.29
2018-12-16T00:01:52.794Z,-0.25
2018-12-16T00:02:52.802Z,-0.26
2018-12-16T00:03:52.810Z,-0.26
2018-12-16T00:04:53.180Z,-0.21
2018-12-16T00:05:52.827Z,-0.26
2018-12-16T00:06:52.830Z,-0.21
2018-12-16T00:07:52.839Z,-0.23
2018-12-16T00:08:52.847Z,-0.22
2018-12-16T00:09:52.858Z,-0.21
2018-12-16T00:10:52.859Z,-0.22
2018-12-16T00:11:52.873Z,-0.21
2018-12-16T00:12:52.875Z,-0.21
2018-12-16T00:13:52.883Z,-0.19
2018-12-16T00:14:52.892Z,-0.14
2018-12-16T00:15:52.898Z,-0.16
2018-12-16T00:16:52.906Z,-0.11
2018-12-16T00:17:52.915Z,-0.05
2018-12-16T00:18:52.922Z,-0.10
2018-12-16T00:19:52.931Z,-0.10
2018-12-16T00:20:52.935Z,-0.05
2018-12-16T00:21:52.945Z,-0.04
2018-12-16T00:22:52.959Z,-0.07
2018-12-16T00:23:52.958Z,-0.05
2018-12-16T00:24:52.972Z,-0.05
2018-12-16T00:25:52.979Z,-0.05
2018-12-16T00:26:53.121Z,-0.14
2018-12-16T00:27:52.988Z,-0.05
2018-12-16T00:28:52.996Z,-0.04
2018-12-16T00:29:53.007Z,-0.05
2018-12-16T00:30:53.011Z,-0.05
2018-12-16T00:31:53.018Z,-0.03
2018-12-16T00:32:53.029Z,-0.07
2018-12-16T00:33:53.036Z,-0.07
2018-12-16T00:34:53.043Z,-0.03
2018-12-16T00:35:53.050Z,-0.01
2018-12-16T00:36:53.060Z,-0.03
2018-12-16T00:37:53.064Z,-0.04
2018-12-16T00:38:53.071Z,-0.08
2018-12-16T00:39:53.086Z,-0.05
2018-12-16T00:40:53.090Z,-0.03
2018-12-16T00:41:53.099Z,-0.08
2018-12-16T00:42:53.106Z,-0.03
2018-12-16T00:43:53.113Z,-0.10
2018-12-16T00:44:53.123Z,-0.03
2018-12-16T00:45:53.132Z,-0.05
2018-12-16T00:46:53.137Z,-0.04
2018-12-16T00:47:53.142Z,-0.05
2018-12-16T00:48:53.155Z,-0.05
2018-12-16T00:49:53.160Z,-0.05
2018-12-16T00:50:53.167Z,-0.05
2018-12-16T00:51:53.176Z,0.07
2018-12-16T00:52:53.181Z,0.03
2018-12-16T00:53:53.192Z,0.04
2018-12-16T00:54:53.200Z,0.02
2018-12-16T00:55:53.203Z,0.10
2018-12-16T00:56:53.218Z,0.03
2018-12-16T00:57:53.438Z,0.04
2018-12-16T00:58:53.230Z,0.04
2018-12-16T00:59:53.434Z,0.08
2018-12-16T01:00:53.241Z,0.13
2018-12-16T01:01:53.252Z,0.07
2018-12-16T01:02:53.257Z,0.10
2018-12-16T01:03:53.263Z,0.10
2018-12-16T01:04:53.278Z,0.10
2018-12-16T01:05:53.283Z,0.10
2018-12-16T01:06:53.287Z,0.13
2018-12-16T01:07:53.294Z,0.17
2018-12-16T01:08:53.306Z,0.15
2018-12-16T01:09:53.312Z,0.13
2018-12-16T01:10:53.317Z,0.15
2018-12-16T01:11:53.327Z,0.14
2018-12-16T01:12:53.332Z,0.24
2018-12-16T01:13:53.343Z,0.11
2018-12-16T01:14:53.347Z,0.24
2018-12-16T01:15:53.359Z,0.20
2018-12-16T01:16:53.371Z,0.21
2018-12-16T01:17:53.372Z,0.29
2018-12-16T01:18:53.378Z,0.26
2018-12-16T01:19:53.393Z,0.26
2018-12-16T01:20:53.398Z,0.29
2018-12-16T01:21:53.406Z,0.21
2018-12-16T01:22:53.414Z,0.28
2018-12-16T01:23:53.418Z,0.26
2018-12-16T01:24:53.428Z,0.21
2018-12-16T01:25:53.436Z,0.18
2018-12-16T01:26:53.442Z,0.24
2018-12-16T01:27:53.452Z,0.17
2018-12-16T01:28:53.457Z,0.15
2018-12-16T01:29:53.470Z,0.17
2018-12-16T01:30:53.473Z,0.18
2018-12-16T01:31:53.483Z,0.18
2018-12-16T01:32:53.491Z,0.08
2018-12-16T01:33:53.497Z,0.20
2018-12-16T01:34:53.509Z,0.24
2018-12-16T01:35:53.516Z,0.26
2018-12-16T01:36:53.519Z,0.24
2018-12-16T01:37:53.531Z,0.21
2018-12-16T01:38:53.536Z,0.28
2018-12-16T01:39:53.548Z,0.29
2018-12-16T01:40:53.552Z,0.21
2018-12-16T01:41:53.560Z,0.26
2018-12-16T01:42:53.618Z,0.24
2018-12-16T01:43:53.575Z,0.24
2018-12-16T01:44:53.586Z,0.23
2018-12-16T01:45:53.644Z,0.21
2018-12-16T01:46:53.598Z,0.11
2018-12-16T01:47:53.609Z,0.13
2018-12-16T01:48:53.613Z,0.11
2018-12-16T01:49:53.622Z,0.17
2018-12-16T01:50:53.628Z,0.13
2018-12-16T01:51:53.640Z,0.14
2018-12-16T01:52:53.646Z,0.15
2018-12-16T01:53:53.655Z,0.21
2018-12-16T01:54:53.662Z,0.24
2018-12-16T01:55:53.673Z,0.26
2018-12-16T01:56:53.690Z,0.29
2018-12-16T01:57:53.688Z,0.23
2018-12-16T01:58:53.700Z,0.20
2018-12-16T01:59:53.710Z,0.24
2018-12-16T02:00:53.711Z,0.24
2018-12-16T02:01:53.717Z,0.26
2018-12-16T02:02:53.823Z,0.26
2018-12-16T02:03:53.735Z,0.28
2018-12-16T02:04:53.742Z,0.35
2018-12-16T02:05:53.747Z,0.32
2018-12-16T02:06:53.757Z,0.31
2018-12-16T02:07:53.763Z,0.33
2018-12-16T02:08:53.773Z,0.32
2018-12-16T02:09:53.777Z,0.33
2018-12-16T02:10:53.791Z,0.31
2018-12-16T02:11:53.799Z,0.31
2018-12-16T02:12:53.803Z,0.35
2018-12-16T02:13:53.808Z,0.32
2018-12-16T02:14:53.819Z,0.29
2018-12-16T02:15:53.833Z,0.35
2018-12-16T02:16:53.887Z,0.36
2018-12-16T02:17:53.841Z,0.41
2018-12-16T02:18:53.849Z,0.44
2018-12-16T02:19:53.859Z,0.38
2018-12-16T02:20:53.872Z,0.42
2018-12-16T02:21:53.878Z,0.39
2018-12-16T02:22:56.923Z,0.36
2018-12-16T02:23:53.891Z,0.46
2018-12-16T02:24:53.896Z,0.39
2018-12-16T02:25:53.908Z,0.42
2018-12-16T02:26:53.912Z,0.44
2018-12-16T02:27:53.922Z,0.38
2018-12-16T02:28:53.930Z,0.31
2018-12-16T02:29:53.937Z,0.44
2018-12-16T02:30:54.210Z,0.41
2018-12-16T02:31:53.964Z,0.42
2018-12-16T02:32:54.063Z,0.41
2018-12-16T02:33:53.967Z,0.42
2018-12-16T02:34:53.973Z,0.36
2018-12-16T02:35:53.988Z,0.41
2018-12-16T02:36:53.994Z,0.41
2018-12-16T02:37:54.008Z,0.41
2018-12-16T02:38:54.006Z,0.41
2018-12-16T02:39:54.013Z,0.44
2018-12-16T02:40:54.035Z,0.49
2018-12-16T02:41:54.038Z,0.39
2018-12-16T02:42:54.046Z,0.44
2018-12-16T02:43:54.045Z,0.44
2018-12-16T02:44:54.058Z,0.47
2018-12-16T02:45:54.064Z,0.47
2018-12-16T02:46:54.076Z,0.53
2018-12-16T02:47:54.079Z,0.44
2018-12-16T02:48:54.086Z,0.50
2018-12-16T02:49:54.093Z,0.58
2018-12-16T02:50:54.102Z,0.58
2018-12-16T02:51:54.109Z,0.53
2018-12-16T02:52:54.117Z,0.47
2018-12-16T02:53:54.325Z,0.47
2018-12-16T02:54:54.130Z,0.49
2018-12-16T02:55:54.139Z,0.42
2018-12-16T02:56:54.164Z,0.49
2018-12-16T02:57:54.155Z,0.49
2018-12-16T02:58:54.165Z,0.42
2018-12-16T02:59:54.171Z,0.49
2018-12-16T03:00:54.180Z,0.46
2018-12-16T03:01:54.188Z,0.49
2018-12-16T03:02:54.200Z,0.41
2018-12-16T03:03:54.203Z,0.50
2018-12-16T03:04:54.213Z,0.61
2018-12-16T03:05:54.225Z,0.57
2018-12-16T03:06:54.225Z,0.57
2018-12-16T03:07:54.237Z,0.58
2018-12-16T03:08:54.241Z,0.55
2018-12-16T03:09:54.250Z,0.57
2018-12-16T03:10:54.267Z,0.60
2018-12-16T03:11:54.267Z,0.57
2018-12-16T03:12:54.273Z,0.50
2018-12-16T03:13:54.327Z,0.50
2018-12-16T03:15:54.298Z,0.51
2018-12-16T03:16:54.306Z,0.60
2018-12-16T03:17:54.319Z,0.51
2018-12-16T03:18:54.328Z,0.51
2018-12-16T03:19:54.330Z,0.55
2018-12-16T03:20:54.337Z,0.51
2018-12-16T03:21:54.348Z,0.51
2018-12-16T03:22:54.354Z,0.51
2018-12-16T03:23:54.368Z,0.58
2018-12-16T03:24:54.389Z,0.62
2018-12-16T03:25:54.378Z,0.61
2018-12-16T03:26:54.405Z,0.69
2018-12-16T03:27:54.396Z,0.73
2018-12-16T03:28:54.401Z,0.65
2018-12-16T03:29:54.408Z,0.61
2018-12-16T03:30:54.424Z,0.73
2018-12-16T03:31:54.438Z,0.62
2018-12-16T03:32:54.441Z,0.65
2018-12-16T03:33:54.441Z,0.68
2018-12-16T03:34:54.455Z,0.68
2018-12-16T03:35:54.456Z,0.65
2018-12-16T03:36:54.463Z,0.65
2018-12-16T03:37:54.475Z,0.65
2018-12-16T03:38:54.478Z,0.72
2018-12-16T03:39:54.495Z,0.68
2018-12-16T03:40:54.498Z,0.57
2018-12-16T03:41:54.519Z,0.68
2018-12-16T03:42:54.602Z,0.72
2018-12-16T03:43:54.520Z,0.72
2018-12-16T03:44:54.530Z,0.75
2018-12-16T03:45:54.541Z,0.68
2018-12-16T03:46:54.548Z,0.65
2018-12-16T03:47:54.560Z,0.62
2018-12-16T03:48:54.563Z,0.72
2018-12-16T03:49:54.568Z,0.72
2018-12-16T03:50:54.581Z,0.70
2018-12-16T03:51:54.588Z,0.68
2018-12-16T03:52:54.595Z,0.75
2018-12-16T03:53:54.600Z,0.75
2018-12-16T03:54:54.608Z,0.76
2018-12-16T03:55:54.621Z,0.73
2018-12-16T03:56:54.632Z,0.72
2018-12-16T03:57:54.635Z,0.75
2018-12-16T03:58:54.640Z,0.78
2018-12-16T03:59:54.649Z,0.80
2018-12-16T04:00:54.662Z,0.93
2018-12-16T04:01:54.667Z,0.91
2018-12-16T04:02:54.674Z,0.83
2018-12-16T04:03:54.687Z,0.93
2018-12-16T04:04:54.694Z,0.88
2018-12-16T04:05:54.700Z,0.86
2018-12-16T04:06:54.709Z,0.80
2018-12-16T04:07:54.719Z,0.80
2018-12-16T04:08:54.725Z,0.73
2018-12-16T04:09:54.730Z,0.70
2018-12-16T04:10:54.743Z,0.76
2018-12-16T04:11:55.098Z,0.70
2018-12-16T04:12:54.758Z,0.73
2018-12-16T04:13:54.964Z,0.70
2018-12-16T04:14:54.777Z,0.72
2018-12-16T04:15:54.779Z,0.76
2018-12-16T04:16:54.792Z,0.76
2018-12-16T04:17:54.797Z,0.78
2018-12-16T04:18:54.807Z,0.79
2018-12-16T04:19:54.810Z,0.73
2018-12-16T04:20:54.818Z,0.79
2018-12-16T04:21:54.886Z,0.83
2018-12-16T04:22:54.889Z,0.79
2018-12-16T04:23:54.845Z,0.87
2018-12-16T04:24:54.854Z,0.88
2018-12-16T04:25:55.062Z,0.80
2018-12-16T04:26:54.867Z,0.84
2018-12-16T04:27:54.877Z,0.84
2018-12-16T04:28:54.892Z,0.90
2018-12-16T04:29:54.896Z,0.88
2018-12-16T04:30:54.902Z,0.91
2018-12-16T04:31:55.116Z,0.94
2018-12-16T04:32:54.969Z,0.96
2018-12-16T04:33:54.928Z,0.94
2018-12-16T04:34:54.936Z,0.96
2018-12-16T04:35:54.947Z,0.87
2018-12-16T04:36:54.958Z,0.87
2018-12-16T04:37:54.958Z,0.84
2018-12-16T04:38:54.966Z,0.78
2018-12-16T04:39:54.977Z,0.90
2018-12-16T04:40:55.003Z,0.88
2018-12-16T04:41:54.993Z,0.88
2018-12-16T04:42:55.003Z,0.88
2018-12-16T04:43:55.007Z,0.90
2018-12-16T04:44:55.017Z,0.93
2018-12-16T04:45:55.027Z,0.93
2018-12-16T04:46:55.036Z,0.91
2018-12-16T04:47:55.120Z,1.00
2018-12-16T04:48:55.052Z,1.00
2018-12-16T04:49:55.059Z,0.98
2018-12-16T04:50:55.067Z,0.97
2018-12-16T04:51:55.073Z,1.00
2018-12-16T04:52:55.084Z,0.94
2018-12-16T04:53:55.096Z,1.05
2018-12-16T04:54:55.205Z,1.08
2018-12-16T04:55:55.110Z,1.08
2018-12-16T04:56:55.117Z,1.06
2018-12-16T04:57:55.126Z,1.14
2018-12-16T04:58:55.129Z,1.12
2018-12-16T04:59:55.137Z,0.98
2018-12-16T05:00:55.152Z,1.00
2018-12-16T05:01:55.158Z,1.11
2018-12-16T05:02:55.167Z,1.08
2018-12-16T05:03:55.239Z,1.02
2018-12-16T05:04:55.180Z,0.97
2018-12-16T05:05:55.191Z,1.04
2018-12-16T05:06:55.196Z,1.04
2018-12-16T05:07:55.209Z,0.98
2018-12-16T05:08:55.212Z,1.00
2018-12-16T05:09:55.221Z,1.00
2018-12-16T05:10:55.347Z,0.88
2018-12-16T05:11:55.242Z,0.83
2018-12-16T05:12:55.268Z,0.84
2018-12-16T05:13:55.258Z,0.73
2018-12-16T05:14:55.267Z,0.68
2018-12-16T05:15:55.279Z,0.76
2018-12-16T05:16:55.281Z,0.68
2018-12-16T05:17:55.352Z,0.73
2018-12-16T05:18:55.298Z,0.70
2018-12-16T05:19:55.360Z,0.69
2018-12-16T05:20:55.315Z,0.73
2018-12-16T05:21:55.325Z,0.72
2018-12-16T05:22:55.331Z,0.69
2018-12-16T05:23:55.341Z,0.68
2018-12-16T05:24:55.351Z,0.65
2018-12-16T05:25:55.359Z,0.72
2018-12-16T05:26:55.364Z,0.69
2018-12-16T05:27:55.371Z,0.70
2018-12-16T05:28:55.381Z,0.66
2018-12-16T05:29:55.387Z,0.57
2018-12-16T05:30:55.398Z,0.65
2018-12-16T05:31:55.407Z,0.66
2018-12-16T05:32:55.416Z,0.66
2018-12-16T05:33:55.420Z,0.61
2018-12-16T05:34:55.425Z,0.66
2018-12-16T05:35:55.440Z,0.62
2018-12-16T05:36:55.465Z,0.68
2018-12-16T05:37:55.458Z,0.65
2018-12-16T05:38:55.464Z,0.62
2018-12-16T05:39:55.472Z,0.68
2018-12-16T05:40:55.480Z,0.68
2018-12-16T05:41:55.487Z,0.62
2018-12-16T05:42:55.493Z,0.47
2018-12-16T05:43:55.505Z,0.44
2018-12-16T05:44:55.510Z,0.39
2018-12-16T05:45:55.523Z,0.32
2018-12-16T05:46:55.528Z,0.21
2018-12-16T05:47:55.538Z,0.20
2018-12-16T05:48:55.546Z,0.20
2018-12-16T05:50:55.910Z,0.23
2018-12-16T05:51:55.598Z,0.14
2018-12-16T05:52:55.575Z,0.13
2018-12-16T05:53:55.592Z,0.17
2018-12-16T05:54:55.594Z,0.03
2018-12-16T05:55:55.600Z,0.10
2018-12-16T05:56:55.608Z,0.14
2018-12-16T05:57:55.618Z,0.08
2018-12-16T05:58:55.627Z,0.15
2018-12-16T05:59:55.631Z,0.11
2018-12-16T06:00:55.638Z,-0.03
2018-12-16T06:01:55.646Z,-0.04
2018-12-16T06:03:56.050Z,-0.08
2018-12-16T06:04:55.959Z,0.04
2018-12-16T06:05:55.679Z,-0.03
2018-12-16T06:06:55.696Z,0.04
2018-12-16T06:07:55.694Z,0.08
2018-12-16T06:08:55.702Z,0.08
2018-12-16T06:09:55.712Z,0.18
2018-12-16T06:10:55.717Z,0.13
2018-12-16T06:11:55.728Z,0.18
2018-12-16T06:12:55.738Z,0.13
2018-12-16T06:13:55.747Z,0.11
2018-12-16T06:14:55.754Z,0.15
2018-12-16T06:15:55.761Z,0.17
2018-12-16T06:16:55.766Z,0.18
2018-12-16T06:17:55.784Z,0.14
2018-12-16T06:18:55.783Z,0.15
2018-12-16T06:19:55.798Z,0.21
2018-12-16T06:20:55.805Z,0.15
2018-12-16T06:21:55.810Z,0.17
2018-12-16T06:22:55.823Z,0.15
2018-12-16T06:23:56.002Z,0.13
2018-12-16T06:24:55.831Z,0.08
2018-12-16T06:25:55.837Z,0.11
2018-12-16T06:26:55.846Z,0.07
2018-12-16T06:27:55.852Z,0.04
2018-12-16T06:28:55.865Z,0.13
2018-12-16T06:29:55.871Z,0.08
2018-12-16T06:30:55.878Z,0.13
2018-12-16T06:31:55.886Z,0.15
2018-12-16T06:32:55.892Z,0.08
2018-12-16T06:33:55.900Z,0.15
2018-12-16T06:34:55.911Z,0.04
2018-12-16T06:35:55.917Z,0.03
2018-12-16T06:36:55.927Z,0.10
2018-12-16T06:37:55.940Z,0.15
2018-12-16T06:38:55.941Z,0.10
2018-12-16T06:39:55.947Z,0.10
2018-12-16T06:40:55.956Z,0.24
2018-12-16T06:41:55.967Z,0.14
2018-12-16T06:42:56.063Z,0.24
2018-12-16T06:43:55.980Z,0.13
2018-12-16T06:44:55.996Z,0.14
2018-12-16T06:45:55.997Z,0.13
2018-12-16T06:46:56.209Z,0.14
2018-12-16T06:47:56.018Z,0.10
2018-12-16T06:48:56.019Z,0.07
2018-12-16T06:49:56.030Z,0.15
2018-12-16T06:50:56.035Z,0.13
2018-12-16T06:51:56.044Z,0.14
2018-12-16T06:52:56.050Z,0.21
2018-12-16T06:54:02.132Z,0.28
2018-12-16T06:54:56.081Z,0.28
2018-12-16T06:55:56.276Z,0.26
2018-12-16T06:56:56.083Z,0.36
2018-12-16T06:57:56.092Z,0.29
2018-12-16T06:58:56.095Z,0.35
2018-12-16T06:59:56.105Z,0.28
2018-12-16T07:00:56.117Z,0.28
2018-12-16T07:01:56.125Z,0.32
2018-12-16T07:02:56.135Z,0.14
2018-12-16T07:03:56.136Z,0.11
2018-12-16T07:04:56.144Z,0.14
2018-12-16T07:05:56.158Z,0.23
2018-12-16T07:06:56.161Z,0.13
2018-12-16T07:07:56.168Z,0.18
2018-12-16T07:08:56.175Z,0.14
2018-12-16T07:09:56.185Z,0.18
2018-12-16T07:10:56.191Z,0.21
2018-12-16T07:11:56.207Z,0.07
2018-12-16T07:12:56.207Z,0.13
2018-12-16T07:13:56.216Z,0.13
2018-12-16T07:14:56.226Z,0.10
2018-12-16T07:15:56.234Z,0.14
2018-12-16T07:16:56.239Z,0.11
2018-12-16T07:17:56.249Z,0.14
2018-12-16T07:18:56.267Z,0.24
2018-12-16T07:19:56.276Z,0.32
2018-12-16T07:20:56.275Z,0.21
2018-12-16T07:21:56.286Z,0.21
2018-12-16T07:22:56.320Z,0.23
2018-12-16T07:23:56.315Z,0.14
2018-12-16T07:24:56.352Z,0.11
2018-12-16T07:25:56.327Z,0.21
2018-12-16T07:26:56.342Z,0.14
2018-12-16T07:27:56.325Z,0.21
2018-12-16T07:28:56.332Z,0.18
2018-12-16T07:29:56.343Z,0.28
2018-12-16T07:30:56.352Z,0.41
2018-12-16T07:31:56.474Z,0.31
2018-12-16T07:32:56.401Z,0.29
2018-12-16T07:33:56.374Z,0.32
2018-12-16T07:34:56.379Z,0.32
2018-12-16T07:35:56.387Z,0.36
2018-12-16T07:36:56.394Z,0.36
2018-12-16T07:37:56.436Z,0.28
2018-12-16T07:38:56.417Z,0.28
2018-12-16T07:39:56.422Z,0.28
2018-12-16T07:40:56.425Z,0.26
2018-12-16T07:41:56.489Z,0.23
2018-12-16T07:42:56.460Z,0.24
2018-12-16T07:43:56.457Z,0.31
2018-12-16T07:44:56.476Z,0.23
2018-12-16T07:45:56.471Z,0.21
2018-12-16T07:46:56.514Z,0.21
2018-12-16T07:47:56.485Z,0.23
2018-12-16T07:48:56.492Z,0.21
2018-12-16T07:49:56.505Z,0.24
2018-12-16T07:50:56.532Z,0.24
2018-12-16T07:51:56.519Z,0.28
2018-12-16T07:52:57.115Z,0.26
2018-12-16T07:53:56.534Z,0.21
2018-12-16T07:54:56.547Z,0.24
2018-12-16T07:55:56.679Z,0.24
2018-12-16T07:56:56.867Z,0.21
2018-12-16T07:57:56.565Z,0.13
2018-12-16T07:58:56.567Z,0.11
2018-12-16T07:59:56.578Z,0.29
2018-12-16T08:00:56.790Z,0.28
2018-12-16T08:01:56.631Z,0.21
2018-12-16T08:02:56.635Z,0.32
2018-12-16T08:03:56.632Z,0.32
2018-12-16T08:04:56.639Z,0.23
2018-12-16T08:05:56.625Z,0.21
2018-12-16T08:06:56.638Z,0.14
2018-12-16T08:07:56.843Z,0.17
2018-12-16T08:08:56.653Z,0.21
2018-12-16T08:09:56.659Z,0.26
2018-12-16T08:10:56.667Z,0.26
2018-12-16T08:11:56.676Z,0.26
2018-12-16T08:12:56.685Z,0.24
2018-12-16T08:13:56.692Z,0.26
2018-12-16T08:14:56.702Z,0.26
2018-12-16T08:15:56.698Z,0.23
2018-12-16T08:16:56.711Z,0.14
2018-12-16T08:17:56.712Z,0.13
2018-12-16T08:18:56.723Z,0.24
2018-12-16T08:19:56.727Z,0.23
2018-12-16T08:20:56.739Z,0.21
2018-12-16T08:21:56.748Z,0.24
2018-12-16T08:22:56.757Z,0.33
2018-12-16T08:23:56.763Z,0.17
2018-12-16T08:24:56.771Z,0.20
2018-12-16T08:25:56.779Z,0.26
2018-12-16T08:26:56.786Z,0.24
2018-12-16T08:27:56.793Z,0.26
2018-12-16T08:28:56.803Z,0.23
2018-12-16T08:29:56.816Z,0.23
2018-12-16T08:30:56.819Z,0.26
2018-12-16T08:31:56.823Z,0.29
2018-12-16T08:32:56.834Z,0.32
2018-12-16T08:33:56.844Z,0.42
2018-12-16T08:34:56.955Z,0.39
2018-12-16T08:35:56.864Z,0.33
2018-12-16T08:36:56.865Z,0.44
2018-12-16T08:37:56.872Z,0.44
2018-12-16T08:38:56.882Z,0.36
2018-12-16T08:39:56.890Z,0.38
2018-12-16T08:40:56.899Z,0.32
2018-12-16T08:41:56.909Z,0.41
2018-12-16T08:42:56.961Z,0.41
2018-12-16T08:43:56.973Z,0.36
2018-12-16T08:44:57.045Z,0.39
2018-12-16T08:45:56.949Z,0.49
2018-12-16T08:46:57.025Z,0.36
2018-12-16T08:47:56.970Z,0.41
2018-12-16T08:48:56.966Z,0.44
2018-12-16T08:49:56.973Z,0.41
2018-12-16T08:50:56.978Z,0.49
2018-12-16T08:51:56.987Z,0.50
2018-12-16T08:52:56.995Z,0.55
2018-12-16T08:53:57.007Z,0.57
2018-12-16T08:54:57.016Z,0.57
2018-12-16T08:55:57.953Z,0.69
2018-12-16T08:56:57.031Z,0.68
2018-12-16T08:57:57.036Z,0.60
2018-12-16T08:58:57.044Z,0.65
2018-12-16T08:59:57.059Z,0.60
2018-12-16T09:00:57.061Z,0.58
2018-12-16T09:01:57.068Z,0.73
2018-12-16T09:02:57.077Z,0.66
2018-12-16T09:03:57.084Z,0.70
2018-12-16T09:04:57.096Z,0.66
2018-12-16T09:05:57.111Z,0.53
2018-12-16T09:06:57.111Z,0.62
2018-12-16T09:07:57.119Z,0.66
2018-12-16T09:08:57.131Z,0.68
2018-12-16T09:09:57.137Z,0.65
2018-12-16T09:10:57.140Z,0.53
2018-12-16T09:11:57.161Z,0.53
2018-12-16T09:12:57.160Z,0.46
2018-12-16T09:13:57.171Z,0.44
2018-12-16T09:14:57.407Z,0.49
2018-12-16T09:15:57.193Z,0.58
2018-12-16T09:16:57.193Z,0.58
2018-12-16T09:17:57.205Z,0.50
2018-12-16T09:18:57.218Z,0.47
2018-12-16T09:19:57.222Z,0.36
2018-12-16T09:20:57.227Z,0.38
2018-12-16T09:21:57.236Z,0.50
2018-12-16T09:22:57.242Z,0.53
2018-12-16T09:23:57.247Z,0.57
2018-12-16T09:24:57.260Z,0.62
2018-12-16T09:25:57.265Z,0.66
2018-12-16T09:26:57.274Z,0.68
2018-12-16T09:27:57.283Z,0.65
2018-12-16T09:28:57.294Z,0.62
2018-12-16T09:29:57.326Z,0.73
2018-12-16T09:30:58.198Z,0.60
2018-12-16T09:31:57.319Z,0.73
2018-12-16T09:32:57.329Z,0.65
2018-12-16T09:33:57.331Z,0.69
2018-12-16T09:34:57.341Z,0.73
2018-12-16T09:35:57.348Z,0.76
2018-12-16T09:36:57.360Z,0.76
2018-12-16T09:37:57.817Z,0.72
2018-12-16T09:38:57.371Z,0.69
2018-12-16T09:39:57.386Z,0.68
2018-12-16T09:40:57.392Z,0.65
2018-12-16T09:41:57.887Z,0.72
2018-12-16T09:42:57.420Z,0.73
2018-12-16T09:43:57.563Z,0.75
2018-12-16T09:44:57.427Z,0.65
2018-12-16T09:45:57.431Z,0.69
2018-12-16T09:46:57.447Z,0.73
2018-12-16T09:47:57.453Z,0.78
2018-12-16T09:48:57.529Z,0.76
2018-12-16T09:49:57.465Z,0.80
2018-12-16T09:50:57.472Z,0.84
2018-12-16T09:51:57.485Z,0.86
2018-12-16T09:52:57.497Z,0.94
2018-12-16T09:53:57.499Z,0.96
2018-12-16T09:54:57.506Z,0.93
2018-12-16T09:55:57.518Z,0.97
2018-12-16T09:56:57.731Z,1.05
2018-12-16T09:57:57.533Z,1.04
2018-12-16T09:58:57.551Z,1.12
2018-12-16T09:59:57.551Z,0.98
2018-12-16T10:00:57.557Z,0.86
2018-12-16T10:01:57.570Z,0.90
2018-12-16T10:02:57.578Z,0.84
2018-12-16T10:03:57.586Z,0.91
2018-12-16T10:04:57.794Z,0.90
2018-12-16T10:05:57.603Z,0.94
2018-12-16T10:06:57.608Z,0.87
2018-12-16T10:07:57.622Z,0.93
2018-12-16T10:08:57.630Z,0.97
2018-12-16T10:09:57.700Z,1.09
2018-12-16T10:10:57.644Z,1.09
2018-12-16T10:11:57.656Z,1.12
2018-12-16T10:12:57.672Z,1.15
2018-12-16T10:13:57.671Z,1.11
2018-12-16T10:14:57.680Z,1.12
2018-12-16T10:15:57.687Z,1.11
2018-12-16T10:16:57.696Z,0.98
2018-12-16T10:17:57.712Z,0.93
2018-12-16T10:18:57.715Z,0.88
2018-12-16T10:19:57.724Z,0.96
2018-12-16T10:20:57.874Z,0.96
2018-12-16T10:21:57.738Z,0.94
2018-12-16T10:22:57.749Z,1.00
2018-12-16T10:23:57.758Z,1.11
2018-12-16T10:24:57.771Z,1.18
2018-12-16T10:25:57.776Z,1.15
2018-12-16T10:26:57.871Z,1.18
2018-12-16T10:27:58.260Z,1.15
2018-12-16T10:28:57.805Z,1.14
2018-12-16T10:29:57.810Z,1.15
2018-12-16T10:30:57.817Z,1.15
2018-12-16T10:31:57.828Z,1.14
2018-12-16T10:32:57.837Z,1.15
2018-12-16T10:33:57.849Z,1.16
2018-12-16T10:34:57.855Z,1.15
2018-12-16T10:35:57.861Z,1.18
2018-12-16T10:36:57.872Z,1.23
2018-12-16T10:37:57.886Z,1.20
2018-12-16T10:38:57.887Z,1.23
2018-12-16T10:39:57.899Z,1.20
2018-12-16T10:40:57.904Z,1.18
2018-12-16T10:41:57.919Z,1.26
2018-12-16T10:42:57.921Z,1.29
2018-12-16T10:43:57.931Z,1.14
2018-12-16T10:44:57.947Z,1.08
2018-12-16T10:45:57.952Z,1.14
2018-12-16T10:46:58.206Z,1.08
2018-12-16T10:47:57.966Z,1.11
2018-12-16T10:49:04.566Z,1.06
2018-12-16T10:49:57.986Z,1.11
2018-12-16T10:50:58.005Z,1.12
2018-12-16T10:51:58.000Z,1.09
2018-12-16T10:52:58.011Z,1.12
2018-12-16T10:53:58.021Z,1.27
2018-12-16T10:54:58.629Z,1.12
2018-12-16T10:55:58.038Z,1.09
2018-12-16T10:56:58.050Z,1.08
2018-12-16T10:57:58.058Z,1.18
2018-12-16T10:58:58.062Z,1.30
2018-12-16T10:59:58.072Z,1.32
2018-12-16T11:00:58.096Z,1.34
2018-12-16T11:01:58.092Z,1.30
2018-12-16T11:02:58.100Z,1.40
2018-12-16T11:03:58.126Z,1.44
2018-12-16T11:04:58.115Z,1.34
2018-12-16T11:05:58.330Z,1.27
2018-12-16T11:06:58.131Z,1.32
2018-12-16T11:07:58.143Z,1.40
2018-12-16T11:08:58.151Z,1.32
2018-12-16T11:09:58.162Z,1.41
2018-12-16T11:10:58.170Z,1.42
2018-12-16T11:11:58.178Z,1.44
2018-12-16T11:12:58.186Z,1.51
2018-12-16T11:13:58.193Z,1.45
2018-12-16T11:14:58.204Z,1.55
2018-12-16T11:15:58.214Z,1.45
2018-12-16T11:16:58.222Z,1.45
2018-12-16T11:17:58.232Z,1.48
2018-12-16T11:18:58.260Z,1.47
2018-12-16T11:19:58.251Z,1.40
2018-12-16T11:20:58.256Z,1.42
2018-12-16T11:21:58.271Z,1.48
2018-12-16T11:22:58.329Z,1.51
2018-12-16T11:23:58.284Z,1.40
2018-12-16T11:25:05.453Z,1.37
2018-12-16T11:25:58.301Z,1.40
2018-12-16T11:26:58.311Z,1.48
2018-12-16T11:27:58.325Z,1.42
2018-12-16T11:28:58.331Z,1.42
2018-12-16T11:29:58.340Z,1.33
2018-12-16T11:30:58.345Z,1.41
2018-12-16T11:31:58.363Z,1.37
2018-12-16T11:32:58.366Z,1.34
2018-12-16T11:33:58.377Z,1.41
2018-12-16T11:34:58.398Z,1.36
2018-12-16T11:35:58.390Z,1.34
2018-12-16T11:36:58.400Z,1.40
2018-12-16T11:37:59.731Z,1.45
2018-12-16T11:38:58.418Z,1.54
2018-12-16T11:39:58.423Z,1.54
2018-12-16T11:40:58.460Z,1.42
2018-12-16T11:41:58.445Z,1.45
2018-12-16T11:42:58.453Z,1.45
2018-12-16T11:43:58.462Z,1.48
2018-12-16T11:44:58.492Z,1.50
2018-12-16T11:45:58.481Z,1.58
2018-12-16T11:46:58.485Z,1.48
2018-12-16T11:47:58.502Z,1.51
2018-12-16T11:48:58.507Z,1.44
2018-12-16T11:49:58.524Z,1.55
2018-12-16T11:50:58.523Z,1.51
2018-12-16T11:51:58.535Z,1.55
2018-12-16T11:52:58.541Z,1.52
2018-12-16T11:53:58.552Z,1.52
2018-12-16T11:54:58.557Z,1.42
2018-12-16T11:55:58.571Z,1.55
2018-12-16T11:56:58.740Z,1.54
2018-12-16T11:57:58.657Z,1.58
2018-12-16T11:58:58.593Z,1.62
2018-12-16T11:59:58.603Z,1.60
2018-12-16T12:00:58.618Z,1.63
2018-12-16T12:01:58.625Z,1.59
2018-12-16T12:02:58.629Z,1.59
2018-12-16T12:03:58.641Z,1.50
2018-12-16T12:04:58.647Z,1.44
2018-12-16T12:05:58.659Z,1.48
2018-12-16T12:06:58.672Z,1.45
2018-12-16T12:07:58.681Z,1.45
2018-12-16T12:08:58.682Z,1.40
2018-12-16T12:09:58.691Z,1.47
2018-12-16T12:10:58.706Z,1.45
2018-12-16T12:11:58.708Z,1.58
2018-12-16T12:12:58.725Z,1.50
2018-12-16T12:13:58.728Z,1.45
2018-12-16T12:14:58.736Z,1.48
2018-12-16T12:15:58.905Z,1.54
2018-12-16T12:16:58.754Z,1.63
2018-12-16T12:17:58.761Z,1.63
2018-12-16T12:18:58.769Z,1.72
2018-12-16T12:19:58.784Z,1.63
2018-12-16T12:20:58.988Z,1.66
2018-12-16T12:22:04.394Z,1.65
2018-12-16T12:22:58.804Z,1.59
2018-12-16T12:23:58.813Z,1.58
2018-12-16T12:24:58.825Z,1.59
2018-12-16T12:25:58.833Z,1.58
2018-12-16T12:26:58.844Z,1.59
2018-12-16T12:27:58.851Z,1.66
2018-12-16T12:28:58.859Z,1.63
2018-12-16T12:29:58.871Z,1.60
2018-12-16T12:30:58.875Z,1.58
2018-12-16T12:31:58.886Z,1.62
2018-12-16T12:32:58.894Z,1.65
2018-12-16T12:33:58.905Z,1.66
2018-12-16T12:34:58.914Z,1.62
2018-12-16T12:35:58.925Z,1.62
2018-12-16T12:36:58.944Z,1.72
2018-12-16T12:37:58.942Z,1.73
2018-12-16T12:38:58.949Z,1.79
2018-12-16T12:39:58.961Z,1.73
2018-12-16T12:40:58.970Z,1.77
2018-12-16T12:41:58.977Z,1.77
2018-12-16T12:42:58.988Z,1.77
2018-12-16T12:43:58.996Z,1.79
2018-12-16T12:44:59.002Z,1.72
2018-12-16T12:45:59.111Z,1.79
2018-12-16T12:46:59.028Z,1.72
2018-12-16T12:47:59.034Z,1.73
2018-12-16T12:48:59.039Z,1.69
2018-12-16T12:49:59.057Z,1.76
2018-12-16T12:50:59.061Z,1.73
2018-12-16T12:51:59.143Z,1.72
2018-12-16T12:52:59.079Z,1.73
2018-12-16T12:53:59.087Z,1.66
2018-12-16T12:54:59.099Z,1.68
2018-12-16T12:55:59.102Z,1.55
2018-12-16T12:56:59.317Z,1.66
2018-12-16T12:57:59.144Z,1.60
2018-12-16T12:58:59.133Z,1.65
2018-12-16T12:59:59.138Z,1.77
2018-12-16T13:00:59.149Z,1.72
2018-12-16T13:01:59.157Z,1.73
2018-12-16T13:02:59.186Z,1.72
2018-12-16T13:03:59.175Z,1.76
2018-12-16T13:04:59.188Z,1.72
2018-12-16T13:05:59.197Z,1.76
2018-12-16T13:06:59.205Z,1.76
2018-12-16T13:07:59.211Z,1.77
2018-12-16T13:08:59.226Z,1.83
2018-12-16T13:09:59.228Z,1.88
2018-12-16T13:10:59.238Z,1.93
2018-12-16T13:11:59.249Z,2.00
2018-12-16T13:12:59.261Z,1.91
2018-12-16T13:13:59.267Z,1.91
2018-12-16T13:14:59.320Z,1.87
2018-12-16T13:15:59.286Z,1.90
2018-12-16T13:16:59.300Z,1.91
2018-12-16T13:17:59.312Z,1.99
2018-12-16T13:18:59.313Z,1.90
2018-12-16T13:19:59.341Z,1.90